Time;durP1;ratioP1;P1;durP2;ratioP2;P2;SDS_P1;SDS_P2;PMS_P1;PMS_P2;Temp;Humidity;BMP_temperature;BMP_pressure;BME280_temperature;BME280_humidity;BME280_pressure;Samples;Min_cycle;Max_cycle;Signal;HPM_P1;HPM_P2
2023/04/06 00:01:25;;;;;;;14.37;8.20;;;;;;;4.90;56.38;101079.44;5071888;28;20712;-77
2023/04/06 00:03:50;;;;;;;13.73;8.10;;;;;;;4.97;56.04;101065.69;5071422;28;20896;-76
2023/04/06 00:06:16;;;;;;;21.08;9.80;;;;;;;5.15;55.94;101073.84;5072501;28;20394;-77
2023/04/06 00:08:42;;;;;;;15.52;8.05;;;;;;;4.88;56.79;101060.31;5072228;28;20379;-76
2023/04/06 00:11:08;;;;;;;17.40;8.25;;;;;;;5.08;56.44;101061.34;5072830;28;21677;-77
2023/04/06 00:13:34;;;;;;;12.57;7.97;;;;;;;4.89;56.19;101054.94;5089765;28;20461;-76
2023/04/06 00:16:00;;;;;;;21.60;10.55;;;;;;;4.99;56.58;101055.06;5106187;28;20379;-76
2023/04/06 00:18:26;;;;;;;15.77;10.10;;;;;;;5.05;56.45;101066.84;5106262;28;20400;-79
2023/04/06 00:20:52;;;;;;;18.50;13.15;;;;;;;4.99;56.42;101049.78;5103184;28;20384;-76
2023/04/06 00:23:17;;;;;;;32.42;29.08;;;;;;;5.26;55.87;101048.50;5094584;28;20865;-77
2023/04/06 00:25:43;;;;;;;57.22;46.10;;;;;;;5.41;55.87;101052.47;5092714;28;20518;-77
2023/04/06 00:28:09;;;;;;;75.60;53.53;;;;;;;5.53;55.13;101042.72;5092778;28;20411;-77
2023/04/06 00:30:34;;;;;;;93.50;54.92;;;;;;;5.36;55.37;101047.56;5075030;28;20377;-78
2023/04/06 00:33:00;;;;;;;143.67;66.47;;;;;;;5.34;55.45;101046.03;5075225;28;20864;-77
2023/04/06 00:35:26;;;;;;;229.82;82.50;;;;;;;5.42;55.48;101041.00;5095331;28;20377;-78
2023/04/06 00:37:51;;;;;;;183.55;74.82;;;;;;;5.39;55.34;101043.88;5094006;28;20799;-78
2023/04/06 00:40:17;;;;;;;479.30;123.50;;;;;;;5.33;55.12;101042.59;5093301;28;20384;-78
2023/04/06 00:42:43;;;;;;;13.90;8.10;;;;;;;5.21;55.10;101038.34;5112586;28;20416;-77
2023/04/06 00:45:09;;;;;;;13.65;7.32;;;;;;;4.92;55.78;101043.38;5116399;28;20401;-78
2023/04/06 00:47:35;;;;;;;17.55;8.25;;;;;;;5.17;55.93;101039.56;5114778;28;20377;-77
2023/04/06 00:50:00;;;;;;;15.40;8.25;;;;;;;5.30;55.17;101034.13;5105741;28;20472;-78
2023/04/06 00:52:26;;;;;;;12.65;7.22;;;;;;;5.02;55.83;101035.56;5094150;28;20419;-78
2023/04/06 00:54:51;;;;;;;13.73;7.60;;;;;;;5.28;55.54;101023.72;5093515;28;20713;-78
2023/04/06 00:57:17;;;;;;;15.23;8.30;;;;;;;5.31;54.96;101001.59;5092828;28;20384;-77
2023/04/06 00:59:44;;;;;;;14.77;7.32;;;;;;;5.27;54.74;101011.53;5092467;28;20382;-78
2023/04/06 01:02:10;;;;;;;14.60;7.28;;;;;;;5.17;55.15;101016.75;5093758;28;20857;-78
2023/04/06 01:04:35;;;;;;;13.03;7.43;;;;;;;5.13;55.42;101015.34;5094426;28;20446;-78
2023/04/06 01:07:01;;;;;;;13.33;7.33;;;;;;;5.09;54.89;101003.41;5093765;28;20374;-78
2023/04/06 01:09:30;;;;;;;15.20;8.17;;;;;;;5.15;55.07;101009.97;5092858;28;20459;-77
2023/04/06 01:11:57;;;;;;;14.52;8.40;;;;;;;5.15;54.71;101010.78;5092801;28;20452;-78
2023/04/06 01:14:23;;;;;;;8.97;6.70;;;;;;;5.05;54.66;101014.31;5092570;28;20381;-78
2023/04/06 01:16:49;;;;;;;13.87;7.43;;;;;;;5.04;55.09;101005.59;5092633;28;20454;-77
2023/04/06 01:19:14;;;;;;;14.60;7.50;;;;;;;5.08;55.07;101001.75;5092660;28;20473;-77
2023/04/06 01:21:41;;;;;;;15.33;7.87;;;;;;;5.29;54.64;100998.28;5093820;28;20429;-78
2023/04/06 01:24:08;;;;;;;14.85;8.07;;;;;;;5.33;53.91;100986.53;5092798;28;20488;-78
2023/04/06 01:26:34;;;;;;;13.68;7.95;;;;;;;5.30;53.87;100989.44;5092117;28;20769;-77
2023/04/06 01:29:01;;;;;;;15.43;8.23;;;;;;;5.28;53.97;100996.63;5091924;28;20707;-77
2023/04/06 01:31:26;;;;;;;15.75;8.70;;;;;;;5.19;54.08;100995.59;5092153;28;20453;-77
2023/04/06 01:33:52;;;;;;;12.53;7.90;;;;;;;5.26;54.49;100994.13;5091835;28;20489;-77
2023/04/06 01:36:18;;;;;;;12.05;7.78;;;;;;;5.28;53.82;100991.38;5091875;28;20482;-77
2023/04/06 01:38:43;;;;;;;15.17;8.50;;;;;;;5.45;53.92;100987.31;5091735;28;20400;-78
2023/04/06 01:41:09;;;;;;;13.40;8.00;;;;;;;5.44;53.60;100978.59;5091956;28;20464;-77
2023/04/06 01:43:35;;;;;;;13.03;8.67;;;;;;;5.59;53.12;100975.63;5091595;28;20471;-77
2023/04/06 01:46:01;;;;;;;16.10;10.18;;;;;;;5.63;53.13;100975.22;5073930;28;20401;-77
2023/04/06 01:48:27;;;;;;;12.88;9.73;;;;;;;5.81;53.15;100985.94;5091879;28;20412;-77
2023/04/06 01:50:53;;;;;;;13.40;10.17;;;;;;;5.54;52.98;100978.63;5091739;28;20392;-77
2023/04/06 01:53:18;;;;;;;14.80;12.95;;;;;;;5.56;53.14;100979.34;5091710;28;20404;-77
2023/04/06 01:55:44;;;;;;;16.37;13.27;;;;;;;5.62;52.84;100976.19;5091752;28;20884;-77
2023/04/06 01:58:10;;;;;;;17.33;12.73;;;;;;;5.47;52.96;100959.09;5091295;28;20377;-77
2023/04/06 02:00:35;;;;;;;20.27;15.07;;;;;;;5.54;53.34;100962.84;5091582;28;20375;-77
2023/04/06 02:03:01;;;;;;;17.43;12.00;;;;;;;5.53;52.25;100959.41;5073650;28;20492;-77
2023/04/06 02:05:27;;;;;;;16.97;12.53;;;;;;;5.66;52.14;100961.00;5091477;28;20418;-77
2023/04/06 02:07:53;;;;;;;365.95;199.25;;;;;;;5.63;52.39;100967.31;5091299;28;20381;-77
2023/04/06 02:10:19;;;;;;;48.38;42.42;;;;;;;5.63;52.51;100964.69;5091340;28;20380;-77
2023/04/06 02:12:44;;;;;;;28.45;23.48;;;;;;;5.66;52.01;100961.00;5090868;28;20430;-76
2023/04/06 02:15:10;;;;;;;25.90;23.30;;;;;;;5.71;51.92;100959.63;5093375;28;20480;-76
2023/04/06 02:17:35;;;;;;;22.88;20.73;;;;;;;5.73;52.26;100965.59;5095051;28;20647;-76
2023/04/06 02:20:01;;;;;;;21.73;19.67;;;;;;;5.65;51.75;100959.31;5077313;28;20373;-76
2023/04/06 02:22:26;;;;;;;24.17;21.87;;;;;;;5.64;51.93;100966.38;5095297;28;20415;-77
2023/04/06 02:24:52;;;;;;;28.07;25.43;;;;;;;5.76;51.76;100964.47;5094822;28;20396;-77
2023/04/06 02:27:17;;;;;;;30.52;27.63;;;;;;;5.64;51.56;100953.22;5094464;28;20381;-77
2023/04/06 02:29:43;;;;;;;32.20;28.97;;;;;;;5.71;51.69;100959.63;5096629;28;20385;-78
2023/04/06 02:32:09;;;;;;;30.17;27.43;;;;;;;5.59;51.63;100958.03;5097817;28;20381;-78
2023/04/06 02:34:34;;;;;;;34.40;31.00;;;;;;;5.63;51.75;100954.19;5077039;28;20400;-76
2023/04/06 02:37:00;;;;;;;33.17;29.73;;;;;;;5.69;51.24;100947.56;5093970;28;20971;-77
2023/04/06 02:39:26;;;;;;;33.85;30.35;;;;;;;5.68;51.16;100951.16;5094033;28;20385;-77
2023/04/06 02:41:51;;;;;;;39.92;35.30;;;;;;;5.70;51.06;100951.84;5093902;28;20833;-77
2023/04/06 02:44:17;;;;;;;38.05;34.15;;;;;;;5.64;51.21;100949.78;5076301;28;20531;-77
2023/04/06 02:46:42;;;;;;;38.10;34.10;;;;;;;5.48;51.34;100956.31;5096878;28;20385;-77
2023/04/06 02:49:08;;;;;;;34.07;30.67;;;;;;;5.42;51.72;100954.22;5079435;28;20744;-77
2023/04/06 02:51:33;;;;;;;35.95;32.10;;;;;;;5.63;51.29;100956.81;5094502;28;20377;-78
2023/04/06 02:53:59;;;;;;;24.73;22.05;;;;;;;5.38;51.60;100950.19;5094330;28;20413;-77
2023/04/06 02:56:24;;;;;;;32.78;29.60;;;;;;;5.32;51.81;100955.97;5093591;28;20442;-77
2023/04/06 02:58:50;;;;;;;39.07;34.90;;;;;;;5.55;51.22;100961.91;5093878;28;20389;-77
2023/04/06 03:01:16;;;;;;;26.77;23.13;;;;;;;5.42;51.33;100942.88;5094383;28;20385;-77
2023/04/06 03:03:41;;;;;;;20.83;18.93;;;;;;;5.30;51.40;100948.22;5094301;28;20405;-78
2023/04/06 03:06:07;;;;;;;24.83;22.47;;;;;;;5.28;51.65;100954.56;5094123;28;20849;-77
2023/04/06 03:08:32;;;;;;;24.77;22.50;;;;;;;5.38;51.13;100950.19;5094345;28;20473;-78
2023/04/06 03:10:58;;;;;;;23.10;21.20;;;;;;;5.11;51.35;100954.19;5093738;28;20970;-78
2023/04/06 03:13:23;;;;;;;26.33;23.43;;;;;;;5.38;51.17;100951.97;5079255;28;20472;-78
2023/04/06 03:15:49;;;;;;;24.00;21.60;;;;;;;5.28;50.47;100942.25;5093947;28;20820;-78
2023/04/06 03:18:14;;;;;;;22.57;18.57;;;;;;;5.44;50.38;100948.81;5106257;28;20384;-78
2023/04/06 03:20:40;;;;;;;19.65;15.05;;;;;;;5.47;50.19;100946.75;5107782;28;20390;-77
2023/04/06 03:23:06;;;;;;;14.60;11.60;;;;;;;5.27;50.33;100948.47;5108442;28;20420;-77
2023/04/06 03:25:31;;;;;;;16.40;13.18;;;;;;;5.03;50.63;100940.03;5098004;28;20393;-78
2023/04/06 03:27:57;;;;;;;19.20;15.43;;;;;;;5.14;50.76;100945.22;5092288;28;20393;-78
2023/04/06 03:30:22;;;;;;;19.63;13.70;;;;;;;5.36;51.06;100942.41;5093371;28;20415;-78
2023/04/06 03:32:48;;;;;;;17.07;13.17;;;;;;;5.35;49.99;100938.13;5092523;28;20381;-77
2023/04/06 03:35:13;;;;;;;18.55;13.70;;;;;;;5.14;50.20;100938.16;5092673;28;20468;-77
2023/04/06 03:37:39;;;;;;;22.20;17.20;;;;;;;5.38;50.24;100944.91;5092442;28;20446;-77
2023/04/06 03:40:05;;;;;;;22.17;16.60;;;;;;;5.42;49.98;100935.84;5092668;28;20931;-77
2023/04/06 03:42:32;;;;;;;22.15;13.52;;;;;;;5.36;50.07;100942.41;5093593;28;20405;-77
2023/04/06 03:44:58;;;;;;;20.55;14.77;;;;;;;5.42;49.67;100925.31;5092982;28;20451;-75
2023/04/06 03:47:24;;;;;;;16.10;11.57;;;;;;;5.39;49.39;100927.38;5093108;28;20392;-76
2023/04/06 03:49:50;;;;;;;16.88;10.77;;;;;;;5.39;49.79;100936.09;5093271;28;20389;-77
2023/04/06 03:52:15;;;;;;;18.23;10.23;;;;;;;5.21;49.79;100935.84;5092262;28;20413;-77
2023/04/06 03:54:41;;;;;;;15.32;10.57;;;;;;;5.30;49.84;100934.25;5092774;28;20745;-77
2023/04/06 03:57:06;;;;;;;18.63;10.70;;;;;;;5.30;49.59;100940.31;5092761;28;20518;-76
2023/04/06 03:59:32;;;;;;;21.23;13.40;;;;;;;5.51;49.67;100934.19;5093331;28;20468;-77
2023/04/06 04:01:57;;;;;;;22.17;12.87;;;;;;;5.49;49.51;100928.22;5091560;28;20420;-76
2023/04/06 04:04:23;;;;;;;19.08;12.13;;;;;;;5.48;49.02;100934.47;5092755;28;20502;-77
2023/04/06 04:06:48;;;;;;;22.67;14.07;;;;;;;5.50;49.29;100930.72;5091696;28;20397;-76
2023/04/06 04:09:14;;;;;;;18.53;12.33;;;;;;;5.43;48.95;100921.72;5091972;28;20424;-78
2023/04/06 04:11:39;;;;;;;15.77;12.23;;;;;;;5.24;49.33;100927.72;5097289;28;20509;-77
2023/04/06 04:14:05;;;;;;;18.05;12.93;;;;;;;5.28;49.19;100928.28;5078430;28;20385;-76
2023/04/06 04:16:30;;;;;;;17.52;12.38;;;;;;;5.31;49.00;100923.59;5097642;28;20858;-76
2023/04/06 04:18:57;;;;;;;17.10;12.27;;;;;;;5.40;49.25;100937.72;5093041;28;20385;-77
2023/04/06 04:21:23;;;;;;;16.90;11.57;;;;;;;5.22;49.21;100928.78;5074804;28;20397;-75
2023/04/06 04:23:49;;;;;;;15.53;11.47;;;;;;;5.50;48.82;100940.44;5095032;28;20403;-76
2023/04/06 04:26:15;;;;;;;18.42;11.98;;;;;;;5.63;48.61;100930.50;5074590;28;20470;-77
2023/04/06 04:28:40;;;;;;;19.50;12.07;;;;;;;5.39;48.70;100927.38;5092521;28;20415;-77
2023/04/06 04:31:06;;;;;;;19.30;12.03;;;;;;;5.39;48.96;100932.63;5094783;28;20420;-77
2023/04/06 04:33:31;;;;;;;19.27;14.77;;;;;;;5.50;49.08;100927.28;5096567;28;20388;-77
2023/04/06 04:35:57;;;;;;;25.77;15.88;;;;;;;5.39;49.34;100925.56;5075179;28;20389;-77
2023/04/06 04:38:22;;;;;;;24.23;14.88;;;;;;;5.41;48.61;100931.53;5092437;28;20421;-78
2023/04/06 04:40:48;;;;;;;21.70;15.10;;;;;;;5.44;49.10;100939.16;5092644;28;20389;-77
2023/04/06 04:43:13;;;;;;;18.63;14.00;;;;;;;5.44;48.61;100940.94;5092298;28;20408;-77
2023/04/06 04:45:39;;;;;;;19.20;14.63;;;;;;;5.53;48.94;100948.88;5092446;28;20400;-76
2023/04/06 04:48:05;;;;;;;19.98;14.13;;;;;;;5.46;49.09;100939.84;5092393;28;20409;-77
2023/04/06 04:50:31;;;;;;;19.67;14.05;;;;;;;5.42;48.65;100942.88;5092127;28;20472;-77
2023/04/06 04:52:57;;;;;;;19.98;15.07;;;;;;;5.51;48.64;100945.56;5091734;28;20794;-77
2023/04/06 04:55:22;;;;;;;18.08;16.10;;;;;;;5.72;48.28;100939.41;5087830;28;20906;-77
2023/04/06 04:57:48;;;;;;;20.70;15.93;;;;;;;5.74;48.93;100940.97;5088594;28;20381;-76
2023/04/06 05:00:14;;;;;;;24.00;18.63;;;;;;;5.75;47.83;100928.63;5092213;28;20716;-77
2023/04/06 05:02:40;;;;;;;18.80;16.60;;;;;;;5.86;47.99;100954.00;5091423;28;20407;-77
2023/04/06 05:05:05;;;;;;;20.83;17.73;;;;;;;5.81;48.49;100945.66;5094738;28;20368;-76
2023/04/06 05:07:31;;;;;;;21.85;19.55;;;;;;;5.94;48.51;100941.84;5083380;28;20371;-77
2023/04/06 05:09:56;;;;;;;22.00;20.00;;;;;;;5.89;47.93;100948.47;5089093;28;20510;-79
2023/04/06 05:12:22;;;;;;;27.57;21.23;;;;;;;5.93;47.72;100948.06;5093328;28;20376;-78
2023/04/06 05:14:48;;;;;;;22.73;20.53;;;;;;;6.07;47.71;100933.72;5081181;28;20472;-77
2023/04/06 05:17:13;;;;;;;24.17;20.10;;;;;;;6.12;47.42;100947.31;5090812;28;20710;-79
2023/04/06 05:19:39;;;;;;;23.73;17.08;;;;;;;6.19;46.95;100949.41;5090517;28;20408;-78
2023/04/06 05:22:04;;;;;;;21.77;16.03;;;;;;;6.13;47.52;100951.59;5067096;28;20383;-78
2023/04/06 05:24:30;;;;;;;24.90;18.03;;;;;;;6.25;47.13;100939.19;5082893;28;20464;-76
2023/04/06 05:26:55;;;;;;;22.23;19.03;;;;;;;6.30;47.15;100936.13;5082898;28;20716;-77
2023/04/06 05:29:21;;;;;;;25.60;19.77;;;;;;;6.34;47.21;100941.94;5085015;28;20730;-77
2023/04/06 05:31:47;;;;;;;19.08;17.08;;;;;;;6.30;46.60;100933.47;5072479;28;20817;-77
2023/04/06 05:34:12;;;;;;;18.35;15.88;;;;;;;6.30;46.86;100938.75;5083377;28;20379;-77
2023/04/06 05:36:40;;;;;;;20.37;18.33;;;;;;;6.29;46.16;100924.75;5069771;28;20869;-77
2023/04/06 05:39:05;;;;;;;19.42;17.42;;;;;;;6.30;46.61;100917.69;5077195;28;20864;-77
2023/04/06 05:41:31;;;;;;;22.77;20.00;;;;;;;6.32;46.91;100921.88;5090766;28;20385;-77
2023/04/06 05:43:56;;;;;;;20.13;17.55;;;;;;;6.35;46.52;100930.44;5091594;28;20431;-78
2023/04/06 05:46:22;;;;;;;19.98;17.88;;;;;;;6.20;45.89;100922.94;5091998;28;20370;-78
2023/04/06 05:48:48;;;;;;;20.10;18.10;;;;;;;6.34;46.34;100920.88;5087214;28;20371;-77
2023/04/06 05:51:13;;;;;;;20.48;18.27;;;;;;;6.60;45.72;100919.38;5072387;28;20432;-78
2023/04/06 05:53:39;;;;;;;23.00;19.90;;;;;;;6.68;45.85;100908.97;5081654;28;20968;-78
2023/04/06 05:56:05;;;;;;;21.35;19.35;;;;;;;6.78;45.71;100908.13;5090433;28;20369;-79
2023/04/06 05:58:30;;;;;;;21.03;19.10;;;;;;;6.96;45.56;100902.97;5094431;28;20387;-77
2023/04/06 06:00:59;;;;;;;21.40;19.40;;;;;;;7.03;45.33;100918.06;5078589;28;20388;-78
2023/04/06 06:03:25;;;;;;;21.60;19.40;;;;;;;7.13;45.41;100911.94;5080044;28;20474;-77
2023/04/06 06:05:50;;;;;;;22.03;20.00;;;;;;;7.24;45.26;100904.72;5073175;28;20758;-77
2023/04/06 06:08:16;;;;;;;20.73;18.77;;;;;;;7.17;44.53;100911.53;5070314;28;20379;-77
2023/04/06 06:10:41;;;;;;;22.95;20.55;;;;;;;7.03;45.22;100902.25;5068471;28;20367;-78
2023/04/06 06:13:07;;;;;;;21.63;19.40;;;;;;;6.81;44.75;100911.31;5069680;28;20375;-76
2023/04/06 06:15:33;;;;;;;18.63;16.93;;;;;;;6.71;44.97;100894.69;5058113;28;20388;-76
2023/04/06 06:17:58;;;;;;;24.90;20.57;;;;;;;6.73;44.61;100892.72;5087539;28;20836;-77
2023/04/06 06:20:24;;;;;;;24.07;21.57;;;;;;;7.00;44.89;100899.91;5062267;28;20374;-78
2023/04/06 06:22:50;;;;;;;21.02;19.05;;;;;;;7.04;44.40;100890.75;5073403;28;20411;-77
2023/04/06 06:25:15;;;;;;;18.57;16.97;;;;;;;7.10;43.66;100892.00;5070311;28;20416;-77
2023/04/06 06:27:42;;;;;;;18.55;16.70;;;;;;;7.05;43.70;100884.50;5085096;28;20438;-78
2023/04/06 06:30:07;;;;;;;20.38;18.35;;;;;;;7.10;43.90;100884.06;5071457;28;20388;-77
2023/04/06 06:32:33;;;;;;;20.33;18.60;;;;;;;7.46;43.72;100881.59;5090082;28;20365;-76
2023/04/06 06:34:58;;;;;;;20.30;18.43;;;;;;;7.42;43.19;100882.88;5090399;28;20381;-77
2023/04/06 06:37:24;;;;;;;20.57;18.97;;;;;;;7.44;43.40;100881.75;5090620;28;20377;-75
2023/04/06 06:39:50;;;;;;;21.88;19.88;;;;;;;7.47;43.15;100867.41;5090898;28;20772;-75
2023/04/06 06:42:15;;;;;;;21.55;19.67;;;;;;;7.64;43.45;100871.09;5090584;28;20373;-76
2023/04/06 06:44:41;;;;;;;23.27;21.10;;;;;;;7.65;42.62;100885.94;5090803;28;20400;-76
2023/04/06 06:47:06;;;;;;;20.40;17.20;;;;;;;7.77;42.04;100876.84;5091328;28;20825;-76
2023/04/06 06:49:32;;;;;;;21.90;20.05;;;;;;;7.51;41.23;100879.34;5074181;28;20418;-76
2023/04/06 06:51:57;;;;;;;23.23;20.97;;;;;;;7.58;41.91;100861.13;5094004;28;20405;-78
2023/04/06 06:54:23;;;;;;;23.57;21.27;;;;;;;7.62;41.61;100880.97;5102863;28;20378;-76
2023/04/06 06:56:48;;;;;;;17.73;16.43;;;;;;;7.43;41.04;100887.97;5084079;28;20407;-77
2023/04/06 06:59:15;;;;;;;23.95;21.95;;;;;;;7.28;41.28;100886.81;5090113;28;20738;-76
2023/04/06 07:01:41;;;;;;;20.90;19.30;;;;;;;7.67;41.63;100878.72;5094231;28;20388;-76
2023/04/06 07:04:08;;;;;;;21.23;19.50;;;;;;;7.63;41.39;100885.25;5094382;28;20397;-76
2023/04/06 07:06:35;;;;;;;29.23;26.25;;;;;;;7.81;41.18;100894.06;5094346;28;20374;-76
2023/04/06 07:09:01;;;;;;;28.00;25.60;;;;;;;7.99;41.20;100887.97;5095069;28;20369;-77
2023/04/06 07:11:26;;;;;;;26.73;24.43;;;;;;;8.03;40.69;100882.25;5095401;28;20933;-77
2023/04/06 07:13:52;;;;;;;25.45;23.23;;;;;;;7.77;40.61;100876.84;5094876;28;20370;-78
2023/04/06 07:16:17;;;;;;;25.08;23.05;;;;;;;7.74;40.95;100886.88;5095093;28;20419;-77
2023/04/06 07:18:43;;;;;;;24.57;22.47;;;;;;;7.73;40.54;100875.50;5094286;28;20768;-77
2023/04/06 07:21:08;;;;;;;28.50;25.97;;;;;;;8.05;40.56;100879.47;5093206;28;20480;-76
2023/04/06 07:23:34;;;;;;;29.05;26.40;;;;;;;8.22;41.01;100877.81;5094414;28;20506;-77
2023/04/06 07:25:59;;;;;;;29.53;26.93;;;;;;;8.56;39.99;100866.59;5094454;28;20424;-77
2023/04/06 07:28:25;;;;;;;35.90;32.30;;;;;;;8.59;39.79;100872.41;5094300;28;20450;-76
2023/04/06 07:30:50;;;;;;;46.63;40.45;;;;;;;8.71;39.72;100862.41;5093463;28;20384;-77
2023/04/06 07:33:16;;;;;;;41.30;37.13;;;;;;;8.54;39.11;100861.44;5094219;28;20423;-77
2023/04/06 07:35:41;;;;;;;40.30;36.07;;;;;;;8.40;36.39;100869.88;5094161;28;20377;-77
2023/04/06 07:38:07;;;;;;;40.80;36.63;;;;;;;8.44;35.62;100862.53;5094297;28;20382;-76
2023/04/06 07:40:33;;;;;;;42.72;38.05;;;;;;;8.69;35.25;100852.97;5094241;28;20373;-77
2023/04/06 07:42:58;;;;;;;50.53;41.97;;;;;;;8.69;34.41;100850.34;5096958;28;20740;-77
2023/04/06 07:45:24;;;;;;;46.43;38.97;;;;;;;8.44;33.94;100852.78;5097782;28;20377;-77
2023/04/06 07:47:49;;;;;;;42.00;37.70;;;;;;;8.53;34.04;100859.78;5095710;28;20381;-77
2023/04/06 07:50:15;;;;;;;44.13;38.25;;;;;;;8.85;34.54;100855.72;5113758;28;20373;-78
2023/04/06 07:52:41;;;;;;;48.47;40.55;;;;;;;8.56;33.51;100856.84;5112707;28;20401;-77
2023/04/06 07:55:07;;;;;;;46.50;39.78;;;;;;;8.78;33.54;100865.25;5111651;28;20369;-77
2023/04/06 07:57:32;;;;;;;49.50;39.97;;;;;;;8.87;33.14;100876.72;5096579;28;20472;-77
2023/04/06 07:59:58;;;;;;;54.80;42.57;;;;;;;8.68;32.87;100857.44;5092992;28;20365;-76
2023/04/06 08:02:23;;;;;;;58.90;44.33;;;;;;;8.58;33.07;100862.78;5095436;28;20393;-77
2023/04/06 08:04:49;;;;;;;58.00;43.63;;;;;;;8.81;33.23;100838.53;5095268;28;20378;-79
2023/04/06 08:07:14;;;;;;;63.80;46.03;;;;;;;8.86;33.64;100846.81;5094717;28;20861;-77
2023/04/06 08:09:40;;;;;;;71.50;48.03;;;;;;;8.92;33.43;100851.47;5095070;28;20384;-78
2023/04/06 08:12:06;;;;;;;75.20;49.20;;;;;;;8.79;33.56;100851.06;5076046;28;20380;-77
2023/04/06 08:14:31;;;;;;;77.10;49.47;;;;;;;8.66;33.05;100843.56;5093836;28;20389;-76
2023/04/06 08:16:57;;;;;;;81.53;49.57;;;;;;;8.86;33.48;100860.03;5076637;28;20374;-77
2023/04/06 08:19:22;;;;;;;72.57;49.35;;;;;;;8.82;33.51;100863.13;5076103;28;20377;-76
2023/04/06 08:21:48;;;;;;;75.22;49.85;;;;;;;8.98;33.53;100861.44;5093987;28;20880;-76
2023/04/06 08:24:14;;;;;;;65.80;46.67;;;;;;;9.07;33.29;100853.53;5094790;28;20785;-77
2023/04/06 08:26:40;;;;;;;71.47;49.53;;;;;;;8.63;33.25;100849.13;5094583;28;20409;-77
2023/04/06 08:29:08;;;;;;;72.22;48.45;;;;;;;8.79;34.54;100828.09;5101344;28;20381;-78
2023/04/06 08:31:34;;;;;;;78.82;49.35;;;;;;;8.70;34.19;100847.53;5076988;28;20431;-78
2023/04/06 08:34:01;;;;;;;92.93;53.78;;;;;;;8.62;34.26;100842.19;5095069;28;20384;-76
2023/04/06 08:36:26;;;;;;;83.18;51.45;;;;;;;8.80;33.76;100845.63;5092519;28;20412;-77
2023/04/06 08:38:53;;;;;;;52.10;42.57;;;;;;;9.07;33.70;100850.91;5076964;28;20490;-77
2023/04/06 08:41:19;;;;;;;39.72;34.15;;;;;;;9.24;33.23;100850.00;5099807;28;20381;-77
2023/04/06 08:44:04;;;;;;;50.05;40.92;;;;;;;8.87;32.99;100837.06;5094308;28;20397;-76
2023/04/06 08:46:30;;;;;;;64.43;46.22;;;;;;;9.07;34.26;100824.47;5075162;28;20724;-76
2023/04/06 08:49:01;;;;;;;65.97;46.70;;;;;;;8.98;33.58;100835.00;5094066;28;20391;-77
2023/04/06 08:51:28;;;;;;;97.07;54.25;;;;;;;9.12;33.21;100843.34;5093055;28;20745;-77
2023/04/06 08:53:55;;;;;;;142.50;63.08;;;;;;;9.02;33.58;100850.53;5092929;28;20487;-77
2023/04/06 08:56:26;;;;;;;156.07;66.03;;;;;;;8.84;32.76;100832.09;5093076;28;20597;-78
2023/04/06 08:58:53;;;;;;;113.20;58.22;;;;;;;8.98;33.74;100826.22;5093525;28;20499;-78
2023/04/06 09:01:25;;;;;;;73.30;49.53;;;;;;;9.21;33.67;100818.56;5093167;28;20392;-76
2023/04/06 09:03:52;;;;;;;27.13;24.50;;;;;;;9.42;33.19;100842.00;5093628;28;20431;-76
2023/04/06 09:06:18;;;;;;;25.73;23.33;;;;;;;9.27;32.70;100825.03;5093034;28;20365;-76
2023/04/06 09:08:44;;;;;;;28.40;25.75;;;;;;;8.92;33.53;100816.28;5095504;28;20389;-78
2023/04/06 09:11:09;;;;;;;31.67;28.30;;;;;;;9.09;34.03;100841.84;5094306;28;20465;-78
2023/04/06 09:13:49;;;;;;;27.53;24.93;;;;;;;9.22;33.37;100822.91;5094123;28;20369;-77
2023/04/06 09:16:16;;;;;;;28.27;25.67;;;;;;;9.43;33.21;100821.66;5093148;28;20416;-78
2023/04/06 09:18:42;;;;;;;24.52;22.27;;;;;;;9.46;32.63;100830.09;5092806;28;20377;-76
2023/04/06 09:21:08;;;;;;;26.23;23.45;;;;;;;9.39;33.30;100815.84;5093683;28;20468;-77
2023/04/06 09:23:34;;;;;;;23.73;21.50;;;;;;;9.61;33.24;100824.19;5093097;28;20648;-76
2023/04/06 09:26:13;;;;;;;31.50;28.77;;;;;;;9.57;32.89;100813.91;5094613;28;20806;-79
2023/04/06 09:28:49;;;;;;;36.47;32.92;;;;;;;9.24;33.35;100804.19;5093558;28;20921;-77
2023/04/06 09:31:16;;;;;;;41.28;37.03;;;;;;;9.52;33.02;100802.16;5093988;28;20730;-77
2023/04/06 09:33:45;;;;;;;48.80;39.92;;;;;;;9.81;33.35;100814.97;5093720;28;20765;-76
2023/04/06 09:36:11;;;;;;;55.83;41.95;;;;;;;9.70;33.37;100809.97;5092631;28;20377;-77
2023/04/06 09:38:38;;;;;;;50.55;40.97;;;;;;;9.50;32.97;100806.78;5091899;28;20373;-79
2023/04/06 09:41:03;;;;;;;51.65;41.60;;;;;;;9.70;32.80;100813.44;5092550;28;20896;-77
2023/04/06 09:43:29;;;;;;;62.00;45.15;;;;;;;9.82;32.64;100811.34;5093877;28;20401;-76
2023/04/06 09:45:56;;;;;;;65.38;46.00;;;;;;;9.91;32.74;100806.88;5092107;28;20377;-77
2023/04/06 09:48:23;;;;;;;67.85;44.95;;;;;;;9.58;31.91;100817.41;5095395;28;20446;-76
2023/04/06 09:50:52;;;;;;;63.27;45.60;;;;;;;9.81;32.22;100803.56;5094552;28;20894;-77
2023/04/06 09:53:20;;;;;;;69.15;47.65;;;;;;;10.00;32.40;100800.59;5094170;28;20393;-77
2023/04/06 09:55:49;;;;;;;68.32;47.38;;;;;;;9.81;32.25;100804.38;5093405;28;20843;-76
2023/04/06 09:58:25;;;;;;;65.63;46.63;;;;;;;9.79;31.49;100822.25;5079329;28;20416;-77
2023/04/06 10:01:01;;;;;;;94.20;53.03;;;;;;;9.84;31.94;100792.66;5101803;28;20380;-77
2023/04/06 10:03:56;;;;;;;70.65;48.55;;;;;;;10.09;32.17;100815.50;5100671;28;20397;-77
2023/04/06 10:06:25;;;;;;;87.65;52.83;;;;;;;9.91;32.96;100797.13;5092667;28;20377;-77
2023/04/06 10:08:54;;;;;;;106.85;57.08;;;;;;;10.25;32.62;100817.34;5091342;28;20430;-78
2023/04/06 10:11:19;;;;;;;96.60;54.38;;;;;;;10.26;32.12;100811.06;5091826;28;20721;-77
2023/04/06 10:13:48;;;;;;;46.88;40.42;;;;;;;10.09;31.87;100791.66;5091428;28;20893;-76
2023/04/06 10:16:15;;;;;;;40.30;36.20;;;;;;;9.72;32.38;100797.41;5092815;28;20380;-76
2023/04/06 10:18:46;;;;;;;39.67;35.47;;;;;;;9.94;31.85;100814.50;5091780;28;20409;-77
2023/04/06 10:21:15;;;;;;;34.28;31.25;;;;;;;9.99;32.01;100804.22;5091929;28;20378;-78
2023/04/06 10:23:52;;;;;;;34.03;30.88;;;;;;;9.82;32.53;100792.81;5092360;28;20424;-78
2023/04/06 10:26:20;;;;;;;31.25;28.35;;;;;;;9.72;32.64;100802.69;5073629;28;20388;-76
2023/04/06 10:28:47;;;;;;;27.15;24.75;;;;;;;10.09;33.36;100799.63;5091870;28;20373;-78
2023/04/06 10:31:13;;;;;;;22.50;20.80;;;;;;;10.09;32.77;100810.22;5091824;28;20860;-77
2023/04/06 10:33:38;;;;;;;23.95;22.17;;;;;;;10.23;32.69;100803.44;5073555;28;20400;-77
2023/04/06 10:36:15;;;;;;;24.13;22.02;;;;;;;10.45;32.34;100795.84;5094004;28;20376;-77
2023/04/06 10:38:42;;;;;;;21.77;19.60;;;;;;;10.23;31.60;100799.97;5095143;28;20369;-77
2023/04/06 10:41:11;;;;;;;23.67;21.38;;;;;;;10.21;31.80;100799.28;5095255;28;20849;-78
2023/04/06 10:43:39;;;;;;;27.15;23.23;;;;;;;9.91;32.90;100796.28;5095762;28;20896;-77
2023/04/06 10:46:06;;;;;;;20.70;18.90;;;;;;;10.13;31.98;100808.06;5095349;28;20480;-77
2023/04/06 10:48:43;;;;;;;16.70;15.07;;;;;;;9.97;33.32;100794.81;5095227;28;20815;-78
2023/04/06 10:51:13;;;;;;;9.18;7.45;;;;;;;10.16;32.74;100789.19;5094996;28;20419;-76
2023/04/06 10:53:43;;;;;;;9.20;7.78;;;;;;;9.88;33.08;100812.50;5078048;28;20401;-76
2023/04/06 10:56:14;;;;;;;11.77;10.68;;;;;;;10.11;32.89;100800.28;5096472;28;20393;-77
2023/04/06 10:58:48;;;;;;;9.75;8.48;;;;;;;10.39;32.73;100794.69;5098459;28;20480;-78
2023/04/06 11:01:18;;;;;;;9.90;8.33;;;;;;;10.07;32.51;100769.00;5096108;28;20496;-76
2023/04/06 11:03:54;;;;;;;8.57;7.22;;;;;;;10.19;32.78;100793.31;5095376;28;20393;-77
2023/04/06 11:06:25;;;;;;;9.50;8.00;;;;;;;9.72;33.46;100787.66;5094787;28;20377;-76
2023/04/06 11:08:51;;;;;;;11.13;7.68;;;;;;;9.82;33.27;100786.69;5094358;28;20453;-78
2023/04/06 11:11:23;;;;;;;11.73;9.80;;;;;;;10.05;33.06;100792.19;5059653;28;20721;-76
2023/04/06 11:13:55;;;;;;;10.85;9.77;;;;;;;9.98;32.96;100799.94;5094403;28;20380;-77